createdAt,value
2018-11-14T00:04:19.069Z,2.13
2018-11-14T00:09:02.097Z,2.17
2018-11-14T00:13:45.979Z,6.27
2018-11-14T00:18:28.842Z,1.70
2018-11-14T00:23:12.830Z,6.20
2018-11-14T00:27:55.787Z,2.50
2018-11-14T00:32:38.846Z,2.27
2018-11-14T00:37:21.762Z,4.83
2018-11-14T00:42:05.182Z,2.27
2018-11-14T00:46:48.094Z,2.53
2018-11-14T00:51:33.115Z,2.37
2018-11-14T00:56:16.413Z,3.10
2018-11-14T01:00:59.488Z,2.17
2018-11-14T01:05:42.689Z,2.10
2018-11-14T01:10:25.783Z,2.57
2018-11-14T01:15:12.098Z,2.13
2018-11-14T01:19:56.093Z,2.27
2018-11-14T01:24:38.927Z,3.80
2018-11-14T01:29:23.185Z,2.60
2018-11-14T01:34:06.425Z,2.30
2018-11-14T01:38:49.675Z,1.93
2018-11-14T01:43:33.923Z,1.80
2018-11-14T01:48:17.103Z,2.30
2018-11-14T01:53:01.497Z,3.20
2018-11-14T01:57:44.674Z,2.67
2018-11-14T02:02:27.675Z,3.13
2018-11-14T02:07:10.526Z,1.80
2018-11-14T02:11:53.501Z,2.73
2018-11-14T02:16:36.392Z,1.93
2018-11-14T02:21:19.473Z,3.33
2018-11-14T02:26:02.345Z,3.80
2018-11-14T02:30:45.213Z,2.33
2018-11-14T02:35:28.473Z,2.87
2018-11-14T02:40:13.713Z,3.40
2018-11-14T02:44:56.607Z,3.43
2018-11-14T02:49:39.653Z,2.57
2018-11-14T02:54:22.514Z,2.97
2018-11-14T02:59:06.678Z,4.77
2018-11-14T03:03:50.619Z,6.40
2018-11-14T03:08:33.519Z,6.23
2018-11-14T03:13:17.627Z,6.07
2018-11-14T03:18:00.526Z,3.93
2018-11-14T03:22:43.695Z,3.63
2018-11-14T03:27:26.995Z,5.13
2018-11-14T03:32:10.606Z,4.63
2018-11-14T03:36:53.899Z,9.20
2018-11-14T03:41:38.022Z,2.97
2018-11-14T03:46:20.922Z,11.23
2018-11-14T03:51:03.994Z,11.47
2018-11-14T03:55:46.850Z,12.77
2018-11-14T04:00:29.975Z,9.87
2018-11-14T04:05:12.934Z,5.10
2018-11-14T04:09:56.987Z,11.10
2018-11-14T04:14:39.850Z,6.20
2018-11-14T04:19:22.802Z,4.77
2018-11-14T04:24:05.853Z,6.67
2018-11-14T04:28:50.883Z,6.67
2018-11-14T04:33:34.022Z,3.37
2018-11-14T04:38:16.953Z,3.47
2018-11-14T04:43:01.927Z,2.50
2018-11-14T04:47:44.984Z,2.27
2018-11-14T04:52:28.852Z,2.60
2018-11-14T04:57:11.767Z,4.67
2018-11-14T05:01:54.976Z,2.60
2018-11-14T05:06:37.871Z,7.83
2018-11-14T05:11:20.930Z,4.93
2018-11-14T05:16:03.867Z,3.97
2018-11-14T05:20:47.216Z,3.13
2018-11-14T05:25:30.782Z,6.53
2018-11-14T05:30:20.285Z,6.40
2018-11-14T05:35:04.132Z,5.90
2018-11-14T05:39:47.242Z,3.73
2018-11-14T05:44:30.154Z,6.13
2018-11-14T05:49:14.190Z,5.67
2018-11-14T05:53:57.055Z,4.37
2018-11-14T05:58:40.999Z,8.03
2018-11-14T06:03:23.889Z,4.80
2018-11-14T06:08:06.829Z,6.00
2018-11-14T06:12:49.890Z,3.63
2018-11-14T06:17:32.776Z,3.40
2018-11-14T06:22:15.659Z,3.07
2018-11-14T06:26:58.677Z,3.70
2018-11-14T06:31:41.711Z,3.63
2018-11-14T06:36:24.619Z,3.93
2018-11-14T06:41:08.754Z,4.03
2018-11-14T06:45:51.656Z,2.57
2018-11-14T06:50:35.763Z,1.80
2018-11-14T06:55:19.340Z,2.07
2018-11-14T07:00:03.488Z,2.17
2018-11-14T07:04:46.388Z,2.73
2018-11-14T07:09:29.354Z,3.20
2018-11-14T07:14:13.134Z,3.20
2018-11-14T07:18:57.169Z,2.40
2018-11-14T07:23:40.079Z,2.50
2018-11-14T07:30:31.890Z,13.10
2018-11-14T07:35:15.534Z,8.03
2018-11-14T07:39:58.508Z,3.63
2018-11-14T07:44:41.395Z,2.40
2018-11-14T07:49:24.511Z,2.17
2018-11-14T07:54:08.344Z,4.57
2018-11-14T07:58:51.338Z,7.47
2018-11-14T08:03:34.247Z,11.10
2018-11-14T08:08:18.467Z,10.93
2018-11-14T08:13:01.405Z,24.87
2018-11-14T08:17:45.054Z,7.00
2018-11-14T08:22:28.030Z,7.33
2018-11-14T08:27:10.928Z,4.63
2018-11-14T08:31:54.468Z,2.10
2018-11-14T08:36:40.210Z,3.10
2018-11-14T08:41:23.219Z,2.60
2018-11-14T08:46:06.543Z,5.00
2018-11-14T08:50:49.710Z,2.93
2018-11-14T08:55:33.692Z,3.87
2018-11-14T09:00:19.959Z,7.80
2018-11-14T09:05:02.854Z,6.07
2018-11-14T09:09:49.132Z,7.33
2018-11-14T09:14:32.108Z,3.03
2018-11-14T09:19:15.177Z,4.00
2018-11-14T09:23:58.096Z,5.33
2018-11-14T09:28:44.556Z,4.50
2018-11-14T09:33:27.462Z,3.47
2018-11-14T09:38:11.359Z,3.50
2018-11-14T09:42:54.254Z,3.77
2018-11-14T09:47:37.138Z,4.03
2018-11-14T09:52:20.253Z,3.20
2018-11-14T09:57:03.233Z,4.70
2018-11-14T10:01:46.276Z,3.93
2018-11-14T10:06:29.194Z,3.33
2018-11-14T10:11:13.295Z,23.47
2018-11-14T10:15:56.574Z,8.33
2018-11-14T10:20:39.562Z,12.43
2018-11-14T10:25:22.492Z,8.03
2018-11-14T10:30:08.673Z,13.00
2018-11-14T10:34:51.580Z,8.27
2018-11-14T10:39:34.634Z,3.63
2018-11-14T10:44:17.527Z,11.57
2018-11-14T10:49:00.402Z,8.77
2018-11-14T10:53:43.275Z,4.33
2018-11-14T10:58:26.285Z,4.03
2018-11-14T11:03:16.478Z,5.77
2018-11-14T11:08:04.949Z,5.50
2018-11-14T11:12:53.231Z,11.73
2018-11-14T11:17:41.571Z,4.70
2018-11-14T11:22:24.424Z,6.10
2018-11-14T11:27:07.356Z,3.50
2018-11-14T11:31:51.480Z,4.10
2018-11-14T11:36:34.405Z,5.20
2018-11-14T11:41:21.100Z,12.67
2018-11-14T11:46:04.015Z,5.03
2018-11-14T11:50:48.265Z,9.70
2018-11-14T11:55:34.979Z,6.33
2018-11-14T12:00:18.561Z,9.17
2018-11-14T12:05:01.588Z,6.03
2018-11-14T12:09:48.905Z,12.23
2018-11-14T12:14:32.456Z,10.03
2018-11-14T12:19:16.569Z,70.97
2018-11-14T12:24:01.420Z,21.90
2018-11-14T12:28:45.412Z,19.10
2018-11-14T12:33:28.316Z,5.23
2018-11-14T12:38:12.320Z,22.70
2018-11-14T12:42:55.286Z,12.03
2018-11-14T12:47:40.557Z,22.50
2018-11-14T12:52:23.456Z,6.73
2018-11-14T12:57:06.381Z,7.77
2018-11-14T13:01:52.596Z,9.10
2018-11-14T13:06:40.223Z,5.70
2018-11-14T13:11:23.382Z,5.70
2018-11-14T13:16:06.402Z,6.20
2018-11-14T13:20:49.788Z,6.17
2018-11-14T13:25:32.827Z,4.60
2018-11-14T13:30:21.920Z,4.37
2018-11-14T13:35:06.948Z,5.13
2018-11-14T13:39:51.325Z,7.43
2018-11-14T13:44:34.450Z,9.63
2018-11-14T13:49:21.529Z,10.63
2018-11-14T13:54:04.615Z,8.63
2018-11-14T13:58:51.491Z,6.90
2018-11-14T14:03:34.619Z,14.93
2018-11-14T14:08:18.704Z,8.10
2018-11-14T14:13:01.810Z,22.87
2018-11-14T14:17:46.920Z,13.00
2018-11-14T14:22:30.015Z,6.27
2018-11-14T14:27:13.429Z,9.53
2018-11-14T14:31:56.475Z,7.23
2018-11-14T14:36:39.523Z,14.93
2018-11-14T14:41:22.786Z,9.53
2018-11-14T14:46:06.526Z,16.60
2018-11-14T14:50:53.711Z,19.50
2018-11-14T14:55:36.749Z,12.80
2018-11-14T15:00:23.053Z,16.90
2018-11-14T15:05:07.475Z,14.10
2018-11-14T15:09:50.570Z,24.63
2018-11-14T15:14:33.825Z,18.73
2018-11-14T15:19:20.773Z,20.73
2018-11-14T15:24:03.897Z,23.63
2018-11-14T15:28:50.886Z,16.73
2018-11-14T15:33:34.014Z,20.87
2018-11-14T15:38:19.139Z,19.03
2018-11-14T15:43:02.393Z,17.03
2018-11-14T15:47:45.737Z,15.13
2018-11-14T15:52:28.963Z,16.37
2018-11-14T15:57:12.340Z,22.17
2018-11-14T16:01:56.037Z,20.00
2018-11-14T16:06:39.831Z,22.03
2018-11-14T16:11:26.474Z,25.13
2018-11-14T16:16:09.519Z,20.93
2018-11-14T16:20:52.760Z,22.77
2018-11-14T16:25:35.764Z,22.57
2018-11-14T16:30:21.653Z,16.23
2018-11-14T16:35:05.624Z,14.47
2018-11-14T16:39:53.190Z,15.93
2018-11-14T16:44:36.382Z,21.57
2018-11-14T16:49:20.332Z,18.93
2018-11-14T16:54:03.406Z,23.13
2018-11-14T16:58:47.590Z,32.87
2018-11-14T17:08:37.692Z,44.87
2018-11-14T17:13:20.643Z,23.47
2018-11-14T17:23:21.495Z,15.73
2018-11-14T17:28:12.312Z,15.33
2018-11-14T17:32:58.680Z,16.80
2018-11-14T17:37:45.844Z,18.73
2018-11-14T17:42:32.718Z,11.33
2018-11-14T17:47:16.716Z,48.83
2018-11-14T17:52:25.260Z,23.30
2018-11-14T18:02:23.187Z,10.10
2018-11-14T18:07:07.362Z,11.80
2018-11-14T18:11:50.813Z,13.37
2018-11-14T18:16:34.980Z,9.00
2018-11-14T18:21:21.620Z,8.70
2018-11-14T18:26:07.652Z,11.20
2018-11-14T18:30:51.246Z,12.63
2018-11-14T18:35:37.686Z,11.90
2018-11-14T18:40:23.829Z,13.43
2018-11-14T18:45:43.203Z,15.47
2018-11-14T18:50:26.720Z,17.60
2018-11-14T18:55:11.343Z,14.90
2018-11-14T18:59:55.359Z,16.67
2018-11-14T19:05:03.421Z,14.27
2018-11-14T19:09:46.542Z,13.33
2018-11-14T19:14:29.799Z,10.20
2018-11-14T19:19:22.368Z,10.67
2018-11-14T19:24:05.555Z,13.37
2018-11-14T19:28:51.514Z,17.90
2018-11-14T19:33:37.141Z,18.33
2018-11-14T19:38:21.162Z,12.10
2018-11-14T19:43:07.021Z,13.30
2018-11-14T19:47:54.498Z,10.00
2018-11-14T19:52:39.104Z,20.30
2018-11-14T19:57:22.243Z,16.80
2018-11-14T20:02:05.391Z,16.37
2018-11-14T20:06:52.393Z,12.47
2018-11-14T20:11:35.422Z,15.60
2018-11-14T20:16:18.622Z,14.43
2018-11-14T20:21:02.914Z,11.63
2018-11-14T20:25:49.577Z,19.63
2018-11-14T20:30:38.125Z,12.77
2018-11-14T20:35:21.804Z,30.23
2018-11-14T20:40:05.483Z,35.73
2018-11-14T20:44:49.648Z,17.70
2018-11-14T20:49:33.814Z,14.33
2018-11-14T20:54:16.768Z,13.57
2018-11-14T20:59:03.515Z,11.97
2018-11-14T21:03:46.435Z,14.07
2018-11-14T21:08:30.576Z,11.57
2018-11-14T21:13:13.523Z,12.13
2018-11-14T21:17:58.741Z,9.80
2018-11-14T21:22:42.187Z,12.80
2018-11-14T21:27:26.180Z,11.90
2018-11-14T21:32:09.083Z,12.10
2018-11-14T21:36:52.173Z,15.00
2018-11-14T21:41:35.094Z,16.77
2018-11-14T21:46:18.191Z,15.00
2018-11-14T21:51:02.354Z,11.47
2018-11-14T21:55:45.261Z,12.87
2018-11-14T22:00:32.168Z,11.33
2018-11-14T22:05:15.127Z,13.83
2018-11-14T22:10:00.409Z,13.63
2018-11-14T22:14:43.423Z,15.77
2018-11-14T22:19:28.611Z,15.10
2018-11-14T22:24:11.544Z,16.07
2018-11-14T22:28:55.628Z,13.07
2018-11-14T22:33:38.620Z,15.93
2018-11-14T22:38:22.818Z,16.87
2018-11-14T22:43:05.842Z,13.87
2018-11-14T22:47:49.582Z,14.07
2018-11-14T22:52:32.468Z,15.03
2018-11-14T22:57:16.879Z,14.00
2018-11-14T23:01:59.796Z,15.30
2018-11-14T23:06:42.908Z,12.40
2018-11-14T23:11:26.303Z,12.90
2018-11-14T23:16:09.427Z,8.90
2018-11-14T23:20:52.835Z,13.33
2018-11-14T23:25:35.708Z,12.30
2018-11-14T23:30:19.942Z,16.43
2018-11-14T23:35:08.656Z,11.63
2018-11-14T23:39:51.755Z,11.13
2018-11-14T23:44:34.707Z,16.23
2018-11-14T23:49:19.106Z,13.27
2018-11-14T23:54:02.072Z,9.63
2018-11-14T23:58:46.031Z,13.47
